Time;durP1;ratioP1;P1;durP2;ratioP2;P2;SDS_P1;SDS_P2;PMS_P1;PMS_P2;Temp;Humidity;BMP_temperature;BMP_pressure;BME280_temperature;BME280_humidity;BME280_pressure;Samples;Min_cycle;Max_cycle;Signal;HPM_P1;HPM_P2
2022/12/19 00:48:57;;;;;;;;;;;;;;;;;;;;;
2022/12/19 00:52:11;;;;;;;31.67;18.27;;;;;;;-1.96;81.94;96582.47;6193865;23;20189;-91
2022/12/19 00:55:51;;;;;;;34.37;18.23;;;;;;;-1.99;82.29;96572.50;6074394;23;20180;-92
2022/12/19 02:43:05;;;;;;;29.10;16.17;;;;;;;-2.17;81.67;96610.34;6016463;23;20224;-92
2022/12/19 02:50:30;;;;;;;;;;;;;;;;;;;;;
2022/12/19 02:57:25;;;;;;;29.33;17.43;;;;;;;-2.12;79.85;96623.53;6161534;23;20180;-91
2022/12/19 03:00:52;;;;;;;30.67;19.17;;;;;;;-2.02;79.93;96630.69;6187778;23;20225;-93
2022/12/19 03:04:30;;;;;;;;;;;;;;;;;;;;;
2022/12/19 03:11:12;;;;;;;31.43;19.27;;;;;;;-2.40;80.84;96633.31;6071614;23;20223;-92
2022/12/19 03:14:20;;;;;;;32.43;19.63;;;;;;;-2.32;81.47;96632.97;6174113;23;20180;-93
2022/12/19 03:28:33;;;;;;;;;;;;;;;;;;;;;
2022/12/19 04:19:26;;;;;;;;;;;;;;;;;;;;;
2022/12/19 04:36:18;;;;;;;33.87;19.50;;;;;;;-1.94;84.20;96654.69;5817479;24;20190;-92
2022/12/19 05:27:15;;;;;;;35.20;19.67;;;;;;;-1.37;85.88;96640.06;5873813;24;20284;-93
2022/12/19 05:40:23;;;;;;;32.60;18.57;;;;;;;-1.19;86.25;96649.22;6003808;23;20226;-92
2022/12/19 05:53:33;;;;;;;;;;;;;;;;;;;;;
2022/12/19 06:17:28;;;;;;;28.33;16.87;;;;;;;-1.20;87.60;96627.38;5845567;23;20213;-83
2022/12/19 06:19:55;;;;;;;26.40;16.50;;;;;;;-1.14;88.03;96633.81;6053791;23;20188;-83
2022/12/19 06:22:22;;;;;;;29.80;16.63;;;;;;;-1.03;87.15;96634.09;6063364;23;20204;-84
2022/12/19 06:24:49;;;;;;;26.27;15.57;;;;;;;-0.93;86.27;96635.22;6066401;23;20180;-83
2022/12/19 06:27:16;;;;;;;27.17;16.67;;;;;;;-0.89;85.90;96623.25;6056911;23;20381;-83
2022/12/19 06:29:42;;;;;;;27.53;16.27;;;;;;;-0.90;86.37;96632.53;6065030;23;20180;-81
2022/12/19 06:32:09;;;;;;;26.53;16.23;;;;;;;-0.90;85.83;96639.31;6065002;23;20185;-83
2022/12/19 06:34:37;;;;;;;25.40;15.93;;;;;;;-0.83;86.32;96638.09;6065243;23;20196;-82
2022/12/19 06:37:03;;;;;;;25.90;15.43;;;;;;;-0.81;85.88;96643.88;6067010;23;20200;-82
2022/12/19 06:39:30;;;;;;;25.13;15.80;;;;;;;-0.80;85.93;96643.81;6066289;23;20180;-82
2022/12/19 06:44:40;;;;;;;26.30;16.50;;;;;;;-0.82;86.30;96635.50;6066161;23;20167;-83
2022/12/19 06:47:07;;;;;;;28.40;16.27;;;;;;;-0.85;87.53;96632.31;6065748;23;20211;-83
2022/12/19 06:49:33;;;;;;;28.17;16.30;;;;;;;-0.87;87.41;96632.38;6065146;23;20189;-82
2022/12/19 06:52:01;;;;;;;28.70;16.40;;;;;;;-0.92;88.33;96626.75;6065616;23;20696;-82
2022/12/19 06:54:28;;;;;;;28.00;16.37;;;;;;;-0.85;87.53;96625.53;6064869;23;20188;-82
2022/12/19 06:56:54;;;;;;;27.13;15.90;;;;;;;-0.81;88.12;96624.47;6064790;23;20208;-83
2022/12/19 06:59:20;;;;;;;27.57;16.50;;;;;;;-0.76;88.11;96621.69;6070801;23;20172;-84
2022/12/19 07:01:56;;;;;;;28.87;17.07;;;;;;;-0.72;87.66;96618.91;6066902;23;20183;-82
2022/12/19 07:04:28;;;;;;;29.10;17.07;;;;;;;-0.62;87.07;96620.97;6067048;23;20161;-83
2022/12/19 07:06:55;;;;;;;27.67;16.53;;;;;;;-0.59;87.06;96628.41;6066069;23;20197;-83
2022/12/19 07:09:23;;;;;;;28.80;17.07;;;;;;;-0.56;86.48;96636.59;6065631;23;20199;-82
2022/12/19 07:11:49;;;;;;;27.93;16.97;;;;;;;-0.54;86.62;96641.59;6065152;23;20320;-82
2022/12/19 07:14:16;;;;;;;26.40;16.47;;;;;;;-0.55;86.94;96632.38;6066320;23;20177;-83
2022/12/19 07:16:42;;;;;;;30.03;17.77;;;;;;;-0.54;87.27;96628.94;6065191;23;20507;-83
2022/12/19 07:19:09;;;;;;;25.90;16.67;;;;;;;-0.52;87.66;96634.72;6066666;23;20181;-82
2022/12/19 07:21:36;;;;;;;29.03;17.33;;;;;;;-0.52;87.68;96647.38;6066504;23;20180;-82
2022/12/19 07:24:04;;;;;;;24.67;15.43;;;;;;;-0.46;87.19;96634.41;6065584;23;20693;-83
2022/12/19 07:26:32;;;;;;;25.50;15.93;;;;;;;-0.37;87.15;96644.81;6066254;23;20196;-82
2022/12/19 07:28:59;;;;;;;27.47;16.33;;;;;;;-0.28;86.51;96641.00;6064807;23;20601;-83
2022/12/19 07:31:26;;;;;;;28.67;16.30;;;;;;;-0.21;86.12;96647.38;6064949;23;20165;-84
2022/12/19 07:33:52;;;;;;;25.47;15.93;;;;;;;-0.13;85.62;96652.78;6065185;23;20188;-83
2022/12/19 07:36:19;;;;;;;23.70;14.63;;;;;;;-0.07;85.32;96649.13;6065056;23;20627;-81
2022/12/19 07:38:45;;;;;;;26.33;16.57;;;;;;;-0.03;85.18;96643.81;6064870;23;20208;-83
2022/12/19 07:41:12;;;;;;;25.57;15.60;;;;;;;0.03;84.98;96651.94;6065896;23;20161;-82
2022/12/19 07:43:39;;;;;;;30.37;17.30;;;;;;;0.06;84.86;96644.19;6066385;23;20557;-83
2022/12/19 07:46:06;;;;;;;25.87;15.77;;;;;;;0.08;85.19;96644.91;6064509;23;20176;-83
2022/12/19 07:48:32;;;;;;;26.00;15.53;;;;;;;0.14;85.09;96652.16;6065317;23;20235;-83
2022/12/19 07:50:59;;;;;;;29.93;16.50;;;;;;;0.13;85.23;96646.28;6065093;23;20183;-82
2022/12/19 07:53:27;;;;;;;27.00;16.67;;;;;;;0.06;85.49;96650.06;6064157;23;20191;-83
2022/12/19 07:55:54;;;;;;;29.43;16.53;;;;;;;-0.01;85.85;96646.25;6065128;23;20184;-83
2022/12/19 07:58:20;;;;;;;29.93;17.03;;;;;;;-0.04;86.93;96647.25;6063822;23;20223;-83
2022/12/19 08:00:55;;;;;;;25.40;16.13;;;;;;;-0.05;86.92;96648.13;6065704;23;20181;-82
2022/12/19 08:03:21;;;;;;;27.20;16.77;;;;;;;0.00;87.80;96643.63;6064514;23;20584;-82
2022/12/19 08:05:48;;;;;;;27.87;17.33;;;;;;;0.00;87.70;96650.41;6064627;23;20177;-83
2022/12/19 08:08:14;;;;;;;30.83;16.93;;;;;;;0.01;88.32;96649.50;6064572;23;20197;-83
2022/12/19 08:10:41;;;;;;;28.07;17.37;;;;;;;0.09;88.08;96649.06;6063509;23;20195;-83
2022/12/19 08:13:07;;;;;;;28.93;17.63;;;;;;;0.08;88.06;96643.19;6066496;23;20200;-83
2022/12/19 08:15:34;;;;;;;26.57;17.10;;;;;;;0.09;89.49;96642.28;6065627;23;20181;-81
2022/12/19 08:18:02;;;;;;;26.07;16.37;;;;;;;0.14;89.89;96645.38;6067067;23;20207;-83
2022/12/19 08:20:28;;;;;;;31.17;17.43;;;;;;;0.17;90.18;96637.63;6067057;23;20184;-80
2022/12/19 08:22:55;;;;;;;29.60;17.77;;;;;;;0.16;90.83;96630.13;6065547;23;20188;-83
2022/12/19 08:25:21;;;;;;;27.53;16.77;;;;;;;0.16;91.77;96615.75;6066848;23;20164;-83
2022/12/19 08:27:48;;;;;;;28.23;17.40;;;;;;;0.19;92.83;96624.88;6064821;23;20207;-83
2022/12/19 08:30:15;;;;;;;28.77;17.27;;;;;;;0.27;92.45;96615.09;6064238;23;20521;-81
2022/12/19 08:32:41;;;;;;;29.40;17.00;;;;;;;0.34;92.53;96609.63;6066286;23;20193;-82
2022/12/19 08:35:09;;;;;;;28.57;17.17;;;;;;;0.40;93.02;96607.59;6066887;23;20511;-83
2022/12/19 08:37:36;;;;;;;26.33;15.07;;;;;;;0.44;91.97;96606.53;6066632;23;20196;-82
2022/12/19 08:40:02;;;;;;;23.70;15.47;;;;;;;0.49;91.84;96605.38;6067137;23;20161;-83
2022/12/19 08:42:29;;;;;;;26.30;15.37;;;;;;;0.52;92.69;96607.72;6066900;23;20173;-82
2022/12/19 08:44:55;;;;;;;26.57;15.97;;;;;;;0.63;92.23;96607.91;6066378;23;20493;-83
2022/12/19 08:47:22;;;;;;;26.30;16.37;;;;;;;0.78;92.04;96615.50;6065727;23;20211;-82
2022/12/19 08:49:48;;;;;;;24.17;15.13;;;;;;;0.85;89.81;96612.50;6065902;23;20177;-83
2022/12/19 08:52:17;;;;;;;23.83;14.03;;;;;;;0.79;91.25;96605.25;6066435;23;20192;-83
2022/12/19 08:54:44;;;;;;;27.00;14.87;;;;;;;0.84;90.80;96598.19;6065228;23;20187;-81
2022/12/19 08:57:10;;;;;;;21.73;13.90;;;;;;;0.92;90.72;96602.81;6066739;23;20203;-82
2022/12/19 08:59:37;;;;;;;22.27;14.40;;;;;;;0.95;91.03;96602.66;6066340;23;20181;-83
2022/12/19 09:02:03;;;;;;;20.80;13.47;;;;;;;0.95;91.73;96587.44;6066060;23;20173;-83
2022/12/19 09:04:30;;;;;;;23.03;13.57;;;;;;;0.96;92.60;96569.56;6066008;23;20176;-81
2022/12/19 09:06:56;;;;;;;20.97;13.23;;;;;;;1.06;92.64;96574.09;6066657;23;20207;-83
2022/12/19 09:09:24;;;;;;;19.90;13.27;;;;;;;1.13;93.00;96567.75;6066095;23;20184;-83
2022/12/19 09:11:51;;;;;;;22.27;13.87;;;;;;;1.20;91.99;96554.56;6065722;23;20184;-82
2022/12/19 09:14:17;;;;;;;21.53;13.83;;;;;;;1.21;92.28;96566.34;6066692;23;20180;-83
2022/12/19 09:16:44;;;;;;;20.93;12.53;;;;;;;1.33;90.99;96557.19;6065954;23;20191;-82
2022/12/19 09:19:14;;;;;;;20.83;13.57;;;;;;;1.48;89.27;96573.97;6066991;23;20177;-81
2022/12/19 09:21:40;;;;;;;18.27;12.40;;;;;;;1.52;90.19;96572.88;6067047;23;20173;-82
2022/12/19 09:24:08;;;;;;;17.27;12.20;;;;;;;1.62;89.17;96584.06;6065894;23;20186;-83
2022/12/19 09:26:37;;;;;;;20.10;12.63;;;;;;;1.70;88.24;96589.47;6066204;23;20658;-83
2022/12/19 09:29:04;;;;;;;17.33;11.33;;;;;;;1.78;87.88;96590.69;6064641;23;20173;-82
2022/12/19 09:31:31;;;;;;;17.83;12.07;;;;;;;1.82;86.64;96587.88;6064996;23;20180;-82
2022/12/19 09:33:57;;;;;;;20.50;12.43;;;;;;;1.86;86.63;96586.75;6065773;23;20185;-82
2022/12/19 09:36:25;;;;;;;19.10;12.00;;;;;;;1.90;86.33;96592.47;6066285;23;20181;-81
2022/12/19 09:38:53;;;;;;;19.87;13.47;;;;;;;1.96;86.64;96584.44;6065831;23;20193;-82
2022/12/19 09:41:52;;;;;;;19.23;12.47;;;;;;;2.01;87.18;96580.69;6065887;23;20181;-83
2022/12/19 09:44:32;;;;;;;18.73;12.67;;;;;;;2.05;87.89;96576.22;6066976;23;20162;-82
2022/12/19 09:47:01;;;;;;;20.47;13.20;;;;;;;2.08;87.17;96576.84;6066431;23;20200;-83
2022/12/19 09:49:31;;;;;;;18.67;13.17;;;;;;;2.13;87.44;96580.78;6065855;23;20181;-83
2022/12/19 09:52:01;;;;;;;19.13;12.80;;;;;;;2.18;86.91;96579.59;6066266;23;20247;-81
2022/12/19 09:54:35;;;;;;;20.00;13.67;;;;;;;2.22;87.49;96595.44;6066143;23;20514;-82
2022/12/19 09:57:09;;;;;;;22.83;13.80;;;;;;;2.25;87.03;96585.91;6066173;23;20197;-83
2022/12/19 09:59:41;;;;;;;21.17;14.27;;;;;;;2.26;88.77;96584.19;6065928;23;20160;-83
2022/12/19 10:02:24;;;;;;;22.03;14.93;;;;;;;2.28;87.83;96582.34;6066407;23;20165;-82
2022/12/19 10:04:55;;;;;;;20.50;14.03;;;;;;;2.32;87.46;96578.69;6065885;23;20169;-82
2022/12/19 10:07:22;;;;;;;21.30;14.00;;;;;;;2.35;89.01;96584.38;6065970;23;20231;-81
2022/12/19 10:09:48;;;;;;;19.90;14.00;;;;;;;2.32;88.88;96576.13;6065127;23;20176;-83
2022/12/19 10:12:51;;;;;;;22.30;13.70;;;;;;;2.36;88.54;96570.75;6065242;23;20196;-82
2022/12/19 10:15:25;;;;;;;21.37;14.07;;;;;;;2.42;90.17;96572.09;6050402;23;20613;-82
2022/12/19 10:18:11;;;;;;;18.37;13.60;;;;;;;2.46;89.15;96568.44;6065040;23;20196;-82
2022/12/19 10:20:42;;;;;;;17.93;12.90;;;;;;;2.56;88.80;96577.06;6065033;23;20167;-83
2022/12/19 10:23:40;;;;;;;22.93;13.53;;;;;;;2.63;88.79;96582.53;6064659;23;20164;-82
2022/12/19 10:26:13;;;;;;;19.57;13.17;;;;;;;2.70;87.53;96579.47;6069750;23;20162;-82
2022/12/19 10:28:52;;;;;;;17.37;12.80;;;;;;;2.76;88.00;96568.06;6064585;23;20695;-81
2022/12/19 10:31:22;;;;;;;19.90;12.80;;;;;;;2.76;88.42;96566.34;6066195;23;20172;-81
2022/12/19 10:33:57;;;;;;;19.60;13.07;;;;;;;2.71;90.52;96558.22;6066229;23;20197;-83
2022/12/19 10:36:24;;;;;;;18.70;12.60;;;;;;;2.76;89.16;96555.38;6066451;23;20164;-81
2022/12/19 10:38:57;;;;;;;18.20;12.93;;;;;;;2.81;88.25;96542.34;6065938;23;20201;-82
2022/12/19 10:41:25;;;;;;;18.87;13.23;;;;;;;2.75;91.17;96544.38;6065854;23;20157;-83
2022/12/19 10:44:01;;;;;;;19.30;13.43;;;;;;;2.70;92.15;96532.88;6066107;23;20655;-81
2022/12/19 10:46:38;;;;;;;18.60;13.43;;;;;;;2.70;91.72;96530.34;6066523;23;20169;-82
2022/12/19 10:49:12;;;;;;;19.90;12.87;;;;;;;2.76;91.27;96520.59;6065826;23;20169;-82
2022/12/19 10:51:39;;;;;;;18.80;13.00;;;;;;;2.72;93.78;96505.63;6065465;23;20173;-83
2022/12/19 10:54:06;;;;;;;21.20;13.67;;;;;;;2.70;94.47;96497.28;6064902;23;20196;-82
2022/12/19 10:56:33;;;;;;;19.07;12.83;;;;;;;2.74;95.47;96491.91;6064869;23;20370;-83
2022/12/19 10:59:01;;;;;;;20.90;12.33;;;;;;;2.75;95.06;96496.06;6064909;23;20165;-84
2022/12/19 11:01:32;;;;;;;17.73;11.00;;;;;;;2.76;93.99;96490.06;6066512;23;20172;-82
2022/12/19 11:04:27;;;;;;;14.67;10.67;;;;;;;2.86;94.21;96477.53;6066354;23;20201;-82
2022/12/19 11:07:07;;;;;;;18.20;11.40;;;;;;;2.97;93.61;96474.22;6066449;23;20201;-83
2022/12/19 11:09:38;;;;;;;13.90;10.20;;;;;;;3.09;91.42;96481.78;6066372;23;20220;-83
2022/12/19 11:12:12;;;;;;;15.50;10.23;;;;;;;3.20;90.26;96485.34;6065452;23;20255;-82
2022/12/19 11:14:44;;;;;;;13.87;10.27;;;;;;;3.27;90.20;96489.06;6065739;23;20185;-84
2022/12/19 11:17:28;;;;;;;14.40;10.80;;;;;;;3.28;90.44;96491.47;6064945;23;20208;-82
2022/12/19 11:19:56;;;;;;;14.77;10.70;;;;;;;3.33;89.61;96497.06;6065630;23;20157;-82
2022/12/19 11:22:24;;;;;;;18.67;11.33;;;;;;;3.39;92.13;96499.19;6064959;23;20519;-83
2022/12/19 11:24:53;;;;;;;15.37;11.10;;;;;;;3.48;89.62;96482.41;6064848;23;20173;-83
2022/12/19 11:27:32;;;;;;;21.63;12.10;;;;;;;3.59;89.15;96479.94;6064711;23;20197;-84
2022/12/19 11:30:00;;;;;;;18.27;13.73;;;;;;;3.71;90.87;96466.28;6064097;23;20176;-83
2022/12/19 11:32:33;;;;;;;20.53;12.93;;;;;;;3.84;89.58;96453.47;6065312;23;20177;-83
2022/12/19 11:35:01;;;;;;;18.00;12.97;;;;;;;3.98;88.17;96450.72;6065585;23;20158;-83
2022/12/19 11:37:36;;;;;;;16.70;12.30;;;;;;;4.06;87.15;96453.47;6066243;23;20208;-83
2022/12/19 11:40:06;;;;;;;17.33;12.80;;;;;;;4.09;86.43;96449.88;6063913;23;20369;-84
2022/12/19 11:42:37;;;;;;;19.13;14.23;;;;;;;4.14;88.97;96453.72;6064308;23;20166;-84
2022/12/19 11:45:14;;;;;;;19.63;10.07;;;;;;;4.74;100.00;96459.34;6065397;23;20160;-82
2022/12/19 11:47:47;;;;;;;22.93;13.33;;;;;;;5.18;99.15;96460.97;6065188;23;20205;-85
2022/12/19 11:50:17;;;;;;;22.33;15.60;;;;;;;5.16;88.09;96457.75;6066456;23;20165;-84
2022/12/19 11:52:49;;;;;;;24.67;15.60;;;;;;;4.97;86.02;96450.72;6067215;23;20168;-85
2022/12/19 11:55:20;;;;;;;19.53;15.13;;;;;;;4.80;85.15;96452.03;6065966;23;20173;-85
2022/12/19 11:57:47;;;;;;;23.17;16.60;;;;;;;4.64;84.86;96463.53;6067173;23;20208;-84
2022/12/19 12:00:19;;;;;;;23.00;15.60;;;;;;;4.51;85.00;96463.69;6064968;23;20180;-84
2022/12/19 12:03:17;;;;;;;24.37;16.57;;;;;;;4.39;85.91;96460.34;6064224;23;20161;-84
2022/12/19 12:05:45;;;;;;;23.53;16.37;;;;;;;4.33;86.66;96455.69;6065148;23;20161;-82
2022/12/19 12:08:33;;;;;;;23.87;17.60;;;;;;;4.23;88.13;96452.22;6063881;23;20224;-83
2022/12/19 12:11:08;;;;;;;25.77;17.43;;;;;;;4.19;87.39;96450.84;6064844;23;20196;-83
2022/12/19 12:13:42;;;;;;;24.17;17.37;;;;;;;4.15;88.11;96457.09;6064278;23;20191;-82
2022/12/19 12:16:13;;;;;;;25.30;17.07;;;;;;;4.13;87.87;96444.47;6064979;23;20188;-83
2022/12/19 12:18:53;;;;;;;21.70;16.83;;;;;;;4.12;88.42;96447.13;6064428;23;20204;-84
2022/12/19 12:21:23;;;;;;;23.57;16.60;;;;;;;4.09;87.92;96437.16;6064260;23;20618;-83
2022/12/19 12:24:13;;;;;;;27.77;17.23;;;;;;;4.06;89.78;96433.09;6063718;23;20184;-83
2022/12/19 12:26:45;;;;;;;24.63;17.20;;;;;;;4.06;90.66;96432.28;6064069;23;20187;-83
2022/12/19 12:29:20;;;;;;;26.53;18.20;;;;;;;3.98;92.36;96434.59;6062506;23;20215;-83
2022/12/19 12:32:04;;;;;;;24.57;17.23;;;;;;;3.92;92.92;96448.59;6064497;23;20635;-84
2022/12/19 12:34:46;;;;;;;26.93;18.23;;;;;;;3.91;93.35;96441.88;6063061;23;20181;-82
2022/12/19 12:37:31;;;;;;;25.80;17.90;;;;;;;3.91;94.20;96443.63;6063938;23;20197;-83
2022/12/19 12:40:12;;;;;;;22.57;16.13;;;;;;;3.93;92.09;96452.78;6064700;23;20176;-81
2022/12/19 12:42:51;;;;;;;27.27;19.00;;;;;;;3.96;94.20;96451.75;6063885;23;20169;-83
2022/12/19 12:45:22;;;;;;;25.23;18.10;;;;;;;3.98;92.83;96440.50;6064330;23;20171;-83
2022/12/19 12:47:52;;;;;;;30.53;20.13;;;;;;;4.00;93.15;96443.75;6063934;23;20196;-84
2022/12/19 12:50:22;;;;;;;26.37;19.33;;;;;;;4.06;90.79;96442.47;6064138;23;20556;-83
2022/12/19 12:52:52;;;;;;;27.40;18.63;;;;;;;4.00;95.02;96425.94;6063684;23;20777;-84
2022/12/19 12:55:25;;;;;;;32.07;18.77;;;;;;;3.92;96.53;96414.69;6063164;23;20206;-83
2022/12/19 12:57:52;;;;;;;25.90;18.23;;;;;;;3.92;96.34;96427.41;6064325;23;20202;-83
2022/12/19 13:00:25;;;;;;;30.07;20.90;;;;;;;3.95;95.89;96424.66;6062815;23;20192;-83
2022/12/19 13:02:57;;;;;;;31.63;21.70;;;;;;;3.97;94.47;96433.78;6057645;23;20165;-82
2022/12/19 13:05:34;;;;;;;32.60;21.97;;;;;;;4.00;92.76;96420.84;6060758;23;20172;-83
2022/12/19 13:08:01;;;;;;;29.00;21.37;;;;;;;3.97;93.73;96422.78;6064029;23;20197;-83
2022/12/19 13:10:31;;;;;;;27.23;20.03;;;;;;;3.96;93.46;96427.09;6065779;23;20166;-84
2022/12/19 13:12:59;;;;;;;26.93;20.63;;;;;;;4.00;94.36;96433.56;6066008;23;20188;-82
2022/12/19 13:15:41;;;;;;;26.23;19.27;;;;;;;4.02;93.87;96423.25;6064801;23;20197;-84
2022/12/19 13:18:15;;;;;;;29.50;19.90;;;;;;;4.03;98.49;96419.78;6065587;23;20197;-84
2022/12/19 13:20:47;;;;;;;27.87;20.00;;;;;;;4.07;96.34;96414.31;6065342;23;20650;-84
2022/12/19 13:23:34;;;;;;;26.57;19.47;;;;;;;4.12;95.58;96416.53;6066215;23;20183;-83
2022/12/19 13:26:01;;;;;;;28.43;19.73;;;;;;;4.19;94.95;96424.53;6065168;23;20880;-83
2022/12/19 13:28:41;;;;;;;33.97;20.40;;;;;;;4.22;93.98;96426.84;6065266;23;20237;-83
2022/12/19 13:31:19;;;;;;;33.97;21.03;;;;;;;4.21;97.34;96418.41;6066201;23;20165;-82
2022/12/19 13:34:16;;;;;;;31.57;20.37;;;;;;;4.22;94.62;96399.63;6064546;23;20196;-83
2022/12/19 13:36:55;;;;;;;29.93;20.27;;;;;;;4.18;94.85;96393.13;6066404;23;20607;-83
2022/12/19 13:39:30;;;;;;;27.03;20.17;;;;;;;4.01;99.37;96383.44;6065889;23;20161;-83
2022/12/19 13:45:00;;;;;;;26.47;19.07;;;;;;;3.77;98.97;96386.88;6064802;23;20249;-84
2022/12/19 13:47:33;;;;;;;27.53;19.03;;;;;;;3.84;97.44;96389.00;6066503;23;20212;-83
2022/12/19 13:50:05;;;;;;;27.73;18.20;;;;;;;3.89;96.06;96389.44;6065976;23;20162;-83
2022/12/19 13:52:32;;;;;;;27.87;18.70;;;;;;;3.91;96.42;96393.47;6068049;23;20162;-82
2022/12/19 13:54:59;;;;;;;25.70;19.47;;;;;;;3.91;96.55;96388.41;6069569;23;20191;-82
2022/12/19 13:57:27;;;;;;;26.23;18.87;;;;;;;3.90;96.24;96389.31;6066231;23;20201;-83
2022/12/19 13:59:59;;;;;;;30.33;19.20;;;;;;;3.87;96.34;96402.28;6066305;23;20166;-84
2022/12/19 14:02:29;;;;;;;29.47;19.27;;;;;;;3.86;95.59;96402.38;6065104;23;20166;-83
2022/12/19 14:04:57;;;;;;;27.97;18.87;;;;;;;3.83;95.20;96406.00;6065062;23;20169;-84
2022/12/19 14:07:37;;;;;;;26.43;20.30;;;;;;;3.81;95.46;96412.94;6065496;23;20197;-83
2022/12/19 14:10:07;;;;;;;35.07;19.73;;;;;;;3.80;94.98;96418.97;6065451;23;20172;-84
2022/12/19 14:15:28;;;;;;;30.87;20.07;;;;;;;3.74;95.30;96424.50;6066240;23;20228;-83
2022/12/19 14:17:54;;;;;;;25.67;18.77;;;;;;;3.71;95.57;96423.00;6064998;23;20209;-84
2022/12/19 14:20:24;;;;;;;26.97;18.83;;;;;;;3.68;95.18;96424.94;6066168;23;20177;-82
2022/12/19 14:22:56;;;;;;;25.77;18.93;;;;;;;3.64;94.93;96436.31;6064932;23;20181;-83
2022/12/19 14:25:23;;;;;;;27.93;19.37;;;;;;;3.62;95.96;96438.16;6066512;23;20165;-84
2022/12/19 14:27:55;;;;;;;30.43;19.87;;;;;;;3.56;96.24;96434.31;6064887;23;20197;-83
2022/12/19 14:30:23;;;;;;;26.23;18.87;;;;;;;3.55;96.13;96445.41;6064604;23;20240;-83
2022/12/19 14:32:53;;;;;;;28.83;19.13;;;;;;;3.50;96.81;96439.84;6064449;23;20631;-82
2022/12/19 14:35:23;;;;;;;28.33;20.23;;;;;;;3.45;96.64;96445.28;6065376;23;20208;-83
2022/12/19 14:38:01;;;;;;;32.03;20.53;;;;;;;3.37;98.75;96441.66;6065341;23;20208;-83
2022/12/19 14:40:30;;;;;;;30.70;20.07;;;;;;;3.30;97.96;96436.19;6065756;23;20169;-83
2022/12/19 14:45:45;;;;;;;28.30;20.67;;;;;;;3.27;97.37;96428.78;6066044;23;20165;-83
2022/12/19 14:48:31;;;;;;;28.60;19.83;;;;;;;3.24;96.64;96426.47;6065106;23;20543;-82
2022/12/19 14:51:10;;;;;;;30.83;21.40;;;;;;;3.22;96.12;96425.78;6064604;23;20653;-82
2022/12/19 14:53:39;;;;;;;31.67;22.23;;;;;;;3.17;98.07;96432.13;6064213;23;20165;-83
2022/12/19 14:56:08;;;;;;;34.10;22.23;;;;;;;3.07;99.90;96426.88;6066375;23;20199;-83
2022/12/19 14:58:37;;;;;;;34.77;21.17;;;;;;;3.05;99.07;96428.72;6063762;23;20204;-82
2022/12/19 15:01:06;;;;;;;32.43;21.93;;;;;;;3.05;98.11;96427.00;6063210;23;20168;-84
2022/12/19 15:03:39;;;;;;;31.47;21.60;;;;;;;3.05;98.07;96413.47;6066200;23;20181;-82
2022/12/19 15:06:08;;;;;;;33.20;22.33;;;;;;;3.01;98.70;96405.22;6064866;23;20157;-82
2022/12/19 15:08:36;;;;;;;30.83;21.80;;;;;;;2.98;98.77;96408.00;6064035;23;20208;-83
2022/12/19 15:13:54;;;;;;;36.40;24.33;;;;;;;2.90;100.00;96406.91;6064030;23;20698;-83
2022/12/19 15:16:26;;;;;;;38.70;24.07;;;;;;;2.82;100.00;96404.91;6064199;23;20177;-82
2022/12/19 15:18:55;;;;;;;34.63;24.07;;;;;;;2.79;100.00;96410.22;6064866;23;20196;-81
2022/12/19 15:21:21;;;;;;;33.70;22.27;;;;;;;2.80;100.00;96413.56;6066002;23;20264;-81
2022/12/19 15:23:47;;;;;;;33.90;22.17;;;;;;;2.82;100.00;96422.72;6065441;23;20649;-84
2022/12/19 15:26:18;;;;;;;34.83;21.87;;;;;;;2.85;99.46;96429.31;6066337;23;20180;-84
2022/12/19 15:28:48;;;;;;;34.23;22.23;;;;;;;2.85;98.96;96431.88;6065138;23;20548;-84
2022/12/19 15:31:28;;;;;;;32.10;21.67;;;;;;;2.80;98.99;96423.75;6066760;23;20162;-82
2022/12/19 15:33:54;;;;;;;29.80;20.93;;;;;;;2.76;99.05;96428.22;6066247;23;20157;-83
2022/12/19 15:36:21;;;;;;;29.77;21.73;;;;;;;2.74;99.06;96418.16;6065386;23;20180;-84
2022/12/19 15:38:47;;;;;;;36.63;21.93;;;;;;;2.74;99.37;96415.63;6065110;23;20207;-83
2022/12/19 15:41:20;;;;;;;31.27;21.67;;;;;;;2.75;99.57;96419.78;6065318;23;20184;-83
2022/12/19 15:43:47;;;;;;;35.40;21.97;;;;;;;2.76;98.36;96407.88;6065444;23;20248;-82
2022/12/19 15:46:14;;;;;;;33.93;22.97;;;;;;;2.74;99.51;96409.72;6065695;23;20181;-84
2022/12/19 15:48:45;;;;;;;29.07;21.20;;;;;;;2.74;98.75;96410.53;6064816;23;20249;-82
2022/12/19 15:51:12;;;;;;;33.43;21.90;;;;;;;2.75;98.25;96413.88;6066190;23;20161;-82
2022/12/19 15:53:39;;;;;;;39.00;24.63;;;;;;;2.72;98.68;96411.56;6065502;23;20567;-83
2022/12/19 15:56:22;;;;;;;34.10;23.03;;;;;;;2.69;99.95;96425.28;6065927;23;20279;-81
2022/12/19 15:58:50;;;;;;;34.10;22.53;;;;;;;2.67;99.42;96421.25;6064819;23;20200;-82
2022/12/19 16:01:17;;;;;;;32.27;22.10;;;;;;;2.67;99.94;96426.34;6065505;23;20188;-83
2022/12/19 16:03:44;;;;;;;30.93;21.70;;;;;;;2.66;99.34;96412.81;6064217;23;20180;-84
2022/12/19 16:07:18;;;;;;;;;;;;;;;;;;;;;
2022/12/19 16:52:01;;;;;;;35.13;23.80;;;;;;;2.58;99.57;96437.13;6149818;23;20225;-91
2022/12/19 16:55:07;;;;;;;34.93;22.43;;;;;;;2.58;100.00;96437.13;6151070;23;20199;-90
2022/12/19 16:57:34;;;;;;;32.23;22.20;;;;;;;2.59;100.00;96439.56;6060096;23;20200;-89
2022/12/19 17:00:09;;;;;;;36.03;23.87;;;;;;;2.57;99.80;96433.78;6148775;23;20183;-91
2022/12/19 17:22:30;;;;;;;39.90;29.07;;;;;;;2.56;99.47;96429.63;6028505;23;20204;-90
2022/12/19 17:35:50;;;;;;;36.90;25.93;;;;;;;2.53;100.00;96432.38;5999716;23;20281;-90
2022/12/19 17:41:42;;;;;;;34.63;23.87;;;;;;;2.52;100.00;96418.03;6059972;23;20710;-90
2022/12/19 17:58:10;;;;;;;30.47;19.37;;;;;;;2.41;100.00;96411.16;5891542;24;20501;-91
2022/12/19 18:01:09;;;;;;;30.27;18.53;;;;;;;2.52;100.00;96407.06;5856281;24;20263;-90
2022/12/19 18:08:10;;;;;;;26.40;16.30;;;;;;;2.55;100.00;96414.47;5795355;24;20196;-89
2022/12/19 18:24:16;;;;;;;20.30;13.40;;;;;;;2.51;100.00;96398.63;5785250;24;20190;-89
2022/12/19 20:42:18;;;;;;;23.00;17.43;;;;;;;2.27;100.00;96349.53;5948831;23;20263;-89
2022/12/19 22:36:16;;;;;;;19.67;13.77;;;;;;;2.30;100.00;96314.56;5890719;24;20304;-89
